Bear Creek Observed Data For Previous 48 Hours

Caption
Day and Hour Reservoir Elevation (behind dam)* Tailwater Elevation (below dam)* Average Hourly Discharge*
2/16/2019 1 AM CST 567.37 542.04 656
2/16/2019 2 AM CST 567.37 542.03 654
2/16/2019 3 AM CST 567.37 542.02 651
2/16/2019 4 AM CST 567.37 542.03 654
2/16/2019 5 AM CST 567.37 542.02 651
2/16/2019 6 AM CST 567.37 542.02 651
2/16/2019 7 AM CST 567.38 542.03 654
2/16/2019 8 AM CST 567.39 542.01 649
2/16/2019 9 AM CST 567.41 542.02 651
2/16/2019 10 AM CST 567.42 542.23 700
2/16/2019 11 AM CST 567.41 542.50 762
2/16/2019 12 PM CST 567.39 542.68 803
2/16/2019 1 PM CST 567.37 542.77 824
2/16/2019 2 PM CST 567.35 542.78 826
2/16/2019 3 PM CST 567.33 542.79 829
2/16/2019 4 PM CST 567.31 542.79 829
2/16/2019 5 PM CST 567.28 542.78 826
2/16/2019 6 PM CST 567.25 542.78 826
2/16/2019 7 PM CST 567.22 542.78 826
2/16/2019 8 PM CST 567.18 542.78 826
2/16/2019 9 PM CST 567.15 542.77 824
2/16/2019 10 PM CST 567.11 542.76 822
2/16/2019 11 PM CST 567.07 542.74 817
2/17/2019 12 AM CST 567.03 542.73 815
2/17/2019 1 AM CST 566.98 542.72 812
2/17/2019 2 AM CST 566.94 542.72 812
2/17/2019 3 AM CST 566.90 542.71 810
2/17/2019 4 AM CST 566.86 542.70 808
2/17/2019 5 AM CST 566.81 542.68 803
2/17/2019 6 AM CST 566.77 542.67 801
2/17/2019 7 AM CST 566.72 542.65 796
2/17/2019 8 AM CST 566.68 542.64 794
2/17/2019 9 AM CST 566.64 542.64 794
2/17/2019 10 AM CST 566.59 542.63 792
2/17/2019 11 AM CST 566.55 542.61 787
2/17/2019 12 PM CST 566.50 542.59 783
2/17/2019 1 PM CST 566.46 542.58 780
2/17/2019 2 PM CST 566.42 542.58 780
2/17/2019 3 PM CST 566.38 542.59 783
2/17/2019 4 PM CST 566.37 542.59 783
2/17/2019 5 PM CST 566.36 542.62 789
2/17/2019 6 PM CST 566.36 542.66 799
2/17/2019 7 PM CST 566.38 542.71 810
2/17/2019 8 PM CST 566.40 542.73 815
2/17/2019 9 PM CST 566.44 542.75 819
2/17/2019 10 PM CST 566.50 542.77 824
2/17/2019 11 PM CST 566.57 542.80 831
2/18/2019 12 AM CST 566.66 542.82 835
2/18/2019 1 AM CST 566.77 542.83 838
2/18/2019 2 AM CST 566.90 542.84 840
2/18/2019 3 AM CST 567.04 542.86 845
2/18/2019 4 AM CST 567.21 542.88 849
2/18/2019 5 AM CST 567.37 542.90 854
2/18/2019 6 AM CST 567.54 542.92 859
2/18/2019 7 AM CST 567.71 542.95 866
2/18/2019 8 AM CST 567.87 542.98 873
2/18/2019 9 AM CST 568.01 543.01 880
2/18/2019 10 AM CST 568.14 543.04 887
2/18/2019 11 AM CST 568.26 543.06 892
2/18/2019 12 PM CST 568.37 543.07 894
2/18/2019 1 PM CST 568.47 543.09 899
2/18/2019 2 PM CST 568.54 543.11 903
2/18/2019 3 PM CST 568.62 543.12 906
2/18/2019 4 PM CST 568.68 543.13 908
2/18/2019 5 PM CST 568.74 543.15 913
2/18/2019 6 PM CST 568.78 543.15 913
2/18/2019 7 PM CST 568.82 543.16 915

Elevations are in feet above sea level. Discharges are in cubic feet per second and are reported at the end of the hour.